Terminal Aerodrome Forecast
Issued by NWS

Home | Current Version | Previous Version | Text Only | Print | Product List | Glossary On
Versions: 1 2 3 4 5 6 7 8 9 10 11 12
734
FTUS42 TJSJ 081730
TAFNCM
TAF
TNCM 081730Z 0818/0918 13011KT P6SM SCT020=

USA.gov is the U.S. government's official web portal to all federal, state and local government web resources and services.